Hawk, Alabama
Current Conditions -  °F | °C
As of 7:55 PM on Monday 24 Nov 2014 (Local Time) from KLGC Reporting Station
Clear Clear  
Wind Chill: 62°   Ceiling: Unl
Heat Index: 62°   Visibility: 10mi
Dew Point: 53°   Wind: 3mph
Humidity: 73%   Direction: 340°NNW
Pressure: 29.95"   Gusts: NA
Location:  33.3575°N, 85.3468°W
Report Text: KLGC 250155Z AUTO 34003KT 10SM CLR 17/12 A2995 RMK AO2 T01660118
Loading
Personal Weather Stations






























Interactive Weather Map New forecast layout! Learn more

10-Day Weather Forecast

Advertisements
Track Severe Weather on mobile